Terminal Aerodrome Forecast
Issued by NWS

Home | Current Version | Previous Version | Text Only | Print | Product List | Glossary On
Versions: 1 2 3 4 5 6 7 8 9 10 11 12 13 14
000
FTUS43 KOAX 231750
TAFSNY
TAF
KSNY 231750Z 2318/2418 12004KT P6SM SKC
     FM232100 13009KT P6SM SCT030 BKN050
     FM240300 12009KT 4SM -SHSN SCT008 BKN015
     FM240600 12009KT 1SM -SN OVC004
     FM241600 30025G35KT P6SM SCT250=

USA.gov is the U.S. government's official web portal to all federal, state and local government web resources and services.